Airfield :
LOGIN :

Register | Disclaimer

   EN    FR    IT 

 










Legend :    VFR   Marginal VFR   IFR   Intensive IFR   Very Intensive IFR
Visi :
Ceiling :
>= 8 km
>= 3000ft
5 to 8 km
1000 to 3000 ft
1500m to 5 km
500 to 1000 ft
800 to 1500m
200 to 500 ft
< 800m
< 200 ft
Symbols :   Thunderstorms  Fog  Heavy snow  Heavy precipitations  Wind > 20 kt
SIGMETs :     Misc.  Thunderstorms  Icing  Turbulence  Mountain Waves  Volcanic Ashes






- Airport Elevation : 203 ft
- IATA code : XMJ


LFBM - Mont-De-Marsan

CURRENT METAR :
  • 290500Z AUTO 00000KT CAVOK 07/06 Q1026 NOSIG

EXPIRED METARs :
  • 290430Z AUTO 00000KT CAVOK 08/06 Q1025 NOSIG
  • 290400Z AUTO VRB02KT CAVOK 08/06 Q1025 NOSIG
  • 290330Z AUTO 00000KT CAVOK 08/06 Q1025 NOSIG
  • 290300Z AUTO 19001KT CAVOK 09/07 Q1025 NOSIG
  • 290230Z AUTO 00000KT CAVOK 11/08 Q1025 NOSIG

TAF TAF LFBM
Valid from the 29 at 03:00 until the 30 at 03:00 UTC


290200Z 2903/3003 21005KT 9999 SCT030
BECMG 3001/3003 BKN002



MET'MAP, your aeronautical weather chart ! - Copyright ORBIFLY December 2007 - Disclaimer

ORBIFLY MET'MAP TEAM :

Programming & Development : Alexandra Zaïnal
Concept & original design : Baudouin d'Aumeries
Assistance for programming : Marc-Olivier Méhu
Technical & hardware support : Manuel Goepfert

Contact : metmap@orbifly.com




SOURCES & CREDITS :

   NOAA